createdAt,value
2023-04-18T00:00:07.744Z,95026.00
2023-04-18T00:01:07.766Z,95026.00
2023-04-18T00:02:07.934Z,95026.00
2023-04-18T00:03:07.956Z,95026.00
2023-04-18T00:04:08.088Z,95028.00
2023-04-18T00:05:08.020Z,95026.00
2023-04-18T00:06:07.962Z,95026.00
2023-04-18T00:07:08.021Z,95024.00
2023-04-18T00:08:08.076Z,95026.00
2023-04-18T00:09:08.127Z,95024.00
2023-04-18T00:10:08.135Z,95022.00
2023-04-18T00:11:08.172Z,95018.00
2023-04-18T00:12:08.201Z,95020.00
2023-04-18T00:13:08.258Z,95016.00
2023-04-18T00:14:08.270Z,95020.00
2023-04-18T00:15:08.336Z,95016.00
2023-04-18T00:16:08.400Z,95018.00
2023-04-18T00:17:08.451Z,95018.00
2023-04-18T00:18:08.522Z,95016.00
2023-04-18T00:19:08.507Z,95014.00
2023-04-18T00:20:08.534Z,95014.00
2023-04-18T00:21:08.701Z,95014.00
2023-04-18T00:22:08.601Z,95012.00
2023-04-18T00:23:08.641Z,95016.00
2023-04-18T00:24:08.710Z,95014.00
2023-04-18T00:25:08.713Z,95014.00
2023-04-18T00:26:08.760Z,95016.00
2023-04-18T00:27:08.774Z,95014.00
2023-04-18T00:28:08.806Z,95014.00
2023-04-18T00:29:08.912Z,95014.00
2023-04-18T00:30:08.994Z,95016.00
2023-04-18T00:31:09.050Z,95014.00
2023-04-18T00:32:09.112Z,95012.00
2023-04-18T00:33:09.010Z,95014.00
2023-04-18T00:34:09.079Z,95014.00
2023-04-18T00:35:09.123Z,95016.00
2023-04-18T00:36:09.137Z,95014.00
2023-04-18T00:37:09.212Z,95014.00
2023-04-18T00:38:09.261Z,95012.00
2023-04-18T00:39:09.315Z,95014.00
2023-04-18T00:40:09.313Z,95014.00
2023-04-18T00:41:09.393Z,95014.00
2023-04-18T00:42:09.450Z,95016.00
2023-04-18T00:43:09.491Z,95014.00
2023-04-18T00:44:09.505Z,95014.00
2023-04-18T00:45:09.564Z,95014.00
2023-04-18T00:46:09.635Z,95012.00
2023-04-18T00:47:09.633Z,95014.00
2023-04-18T00:48:09.648Z,95010.00
2023-04-18T00:49:09.749Z,95010.00
2023-04-18T00:50:09.759Z,95010.00
2023-04-18T00:51:09.834Z,95008.00
2023-04-18T00:52:09.861Z,95010.00
2023-04-18T00:53:09.934Z,95008.00
2023-04-18T00:54:09.935Z,95008.00
2023-04-18T00:55:09.983Z,95008.00
2023-04-18T00:56:10.059Z,95008.00
2023-04-18T00:57:10.056Z,95008.00
2023-04-18T00:58:10.122Z,95008.00
2023-04-18T00:59:10.177Z,95008.00
2023-04-18T01:00:10.216Z,95008.00
2023-04-18T01:01:10.272Z,95008.00
2023-04-18T01:02:10.323Z,95008.00
2023-04-18T01:03:10.507Z,95008.00
2023-04-18T01:04:10.482Z,95006.00
2023-04-18T01:05:10.424Z,95008.00
2023-04-18T01:06:10.466Z,95008.00
2023-04-18T01:07:10.530Z,95006.00
2023-04-18T01:08:10.549Z,95006.00
2023-04-18T01:09:10.594Z,95006.00
2023-04-18T01:10:10.704Z,95006.00
2023-04-18T01:11:10.672Z,95006.00
2023-04-18T01:12:10.717Z,95010.00
2023-04-18T01:13:10.790Z,95008.00
2023-04-18T01:14:11.052Z,95006.00
2023-04-18T01:15:10.848Z,95006.00
2023-04-18T01:16:10.979Z,95004.00
2023-04-18T01:17:10.983Z,95004.00
2023-04-18T01:18:11.018Z,95004.00
2023-04-18T01:19:11.031Z,95002.00
2023-04-18T01:20:11.092Z,95002.00
2023-04-18T01:21:11.084Z,95002.00
2023-04-18T01:22:11.198Z,95000.00
2023-04-18T01:23:11.194Z,94996.00
2023-04-18T01:24:11.568Z,94993.00
2023-04-18T01:25:11.329Z,94993.00
2023-04-18T01:26:11.389Z,94991.00
2023-04-18T01:27:11.396Z,94993.00
2023-04-18T01:28:11.447Z,94993.00
2023-04-18T01:29:11.519Z,94993.00
2023-04-18T01:30:11.519Z,94989.00
2023-04-18T01:31:11.670Z,94989.00
2023-04-18T01:32:11.622Z,94987.00
2023-04-18T01:33:11.681Z,94989.00
2023-04-18T01:34:11.879Z,94991.00
2023-04-18T01:35:11.806Z,94993.00
2023-04-18T01:36:11.855Z,94993.00
2023-04-18T01:37:11.869Z,94991.00
2023-04-18T01:38:11.919Z,94991.00
2023-04-18T01:39:11.986Z,94989.00
2023-04-18T01:40:12.055Z,94989.00
2023-04-18T01:41:12.053Z,94989.00
2023-04-18T01:42:12.114Z,94987.00
2023-04-18T01:43:12.150Z,94987.00
2023-04-18T01:44:12.489Z,94985.00
2023-04-18T01:45:12.236Z,94989.00
2023-04-18T01:46:12.355Z,94987.00
2023-04-18T01:47:12.344Z,94989.00
2023-04-18T01:48:12.405Z,94989.00
2023-04-18T01:49:12.408Z,94987.00
2023-04-18T01:50:12.492Z,94989.00
2023-04-18T01:51:12.520Z,94987.00
2023-04-18T01:52:12.587Z,94987.00
2023-04-18T01:53:12.601Z,94987.00
2023-04-18T01:54:12.884Z,94987.00
2023-04-18T01:55:12.710Z,94989.00
2023-04-18T01:56:12.758Z,94987.00
2023-04-18T01:57:12.831Z,94991.00
2023-04-18T01:58:12.827Z,94993.00
2023-04-18T01:59:12.858Z,94989.00
2023-04-18T02:00:12.908Z,94993.00
2023-04-18T02:01:13.060Z,94993.00
2023-04-18T02:02:13.064Z,94994.00
2023-04-18T02:03:13.244Z,94991.00
2023-04-18T02:04:13.454Z,94989.00
2023-04-18T02:05:13.194Z,94987.00
2023-04-18T02:06:13.185Z,94987.00
2023-04-18T02:07:13.244Z,94985.00
2023-04-18T02:08:13.300Z,94985.00
2023-04-18T02:09:13.361Z,94989.00
2023-04-18T02:10:13.427Z,94989.00
2023-04-18T02:11:13.480Z,94991.00
2023-04-18T02:12:13.551Z,94987.00
2023-04-18T02:13:13.556Z,94989.00
2023-04-18T02:14:13.870Z,94989.00
2023-04-18T02:15:13.671Z,94989.00
2023-04-18T02:16:13.748Z,94987.00
2023-04-18T02:17:13.772Z,94987.00
2023-04-18T02:18:13.773Z,94989.00
2023-04-18T02:19:13.927Z,94989.00
2023-04-18T02:20:13.894Z,94987.00
2023-04-18T02:21:13.953Z,94985.00
2023-04-18T02:22:14.027Z,94987.00
2023-04-18T02:23:14.041Z,94989.00
2023-04-18T02:24:14.388Z,94989.00
2023-04-18T02:25:14.144Z,94989.00
2023-04-18T02:26:14.193Z,94993.00
2023-04-18T02:27:14.255Z,94993.00
2023-04-18T02:28:14.255Z,94993.00
2023-04-18T02:29:14.316Z,94993.00
2023-04-18T02:30:14.387Z,94994.00
2023-04-18T02:31:14.476Z,94994.00
2023-04-18T02:32:14.432Z,94994.00
2023-04-18T02:33:14.517Z,94994.00
2023-04-18T02:34:14.756Z,94993.00
2023-04-18T02:35:14.647Z,94994.00
2023-04-18T02:36:14.624Z,94991.00
2023-04-18T02:37:14.678Z,94996.00
2023-04-18T02:38:14.750Z,94996.00
2023-04-18T02:39:14.803Z,94994.00
2023-04-18T02:40:14.852Z,94994.00
2023-04-18T02:41:14.930Z,94993.00
2023-04-18T02:42:14.969Z,94996.00
2023-04-18T02:43:14.986Z,94993.00
2023-04-18T02:44:15.227Z,94993.00
2023-04-18T02:45:15.042Z,94993.00
2023-04-18T02:46:15.157Z,94994.00
2023-04-18T02:47:15.160Z,94993.00
2023-04-18T02:48:15.280Z,94994.00
2023-04-18T02:49:15.275Z,94994.00
2023-04-18T02:50:15.314Z,94991.00
2023-04-18T02:51:15.346Z,94993.00
2023-04-18T02:52:15.433Z,94994.00
2023-04-18T02:53:15.472Z,94991.00
2023-04-18T02:54:15.730Z,94993.00
2023-04-18T02:55:15.586Z,94991.00
2023-04-18T02:56:15.631Z,94991.00
2023-04-18T02:57:15.686Z,94987.00
2023-04-18T02:58:15.735Z,94987.00
2023-04-18T02:59:15.752Z,94987.00
2023-04-18T03:00:15.827Z,94987.00
2023-04-18T03:01:15.916Z,94987.00
2023-04-18T03:02:15.944Z,94985.00
2023-04-18T03:03:16.030Z,94987.00
2023-04-18T03:04:16.306Z,94987.00
2023-04-18T03:05:16.065Z,94985.00
2023-04-18T03:06:16.101Z,94985.00
2023-04-18T03:07:16.165Z,94985.00
2023-04-18T03:08:16.200Z,94985.00
2023-04-18T03:09:16.229Z,94985.00
2023-04-18T03:10:16.297Z,94985.00
2023-04-18T03:11:16.379Z,94981.00
2023-04-18T03:12:16.418Z,94981.00
2023-04-18T03:13:16.438Z,94983.00
2023-04-18T03:14:16.459Z,94981.00
2023-04-18T03:15:16.538Z,94983.00
2023-04-18T03:16:16.742Z,94981.00
2023-04-18T03:17:16.649Z,94983.00
2023-04-18T03:18:16.717Z,94981.00
2023-04-18T03:19:16.806Z,94981.00
2023-04-18T03:20:16.762Z,94981.00
2023-04-18T03:21:16.817Z,94981.00
2023-04-18T03:22:16.882Z,94981.00
2023-04-18T03:23:16.881Z,94981.00
2023-04-18T03:24:17.142Z,94979.00
2023-04-18T03:25:17.000Z,94977.00
2023-04-18T03:26:17.113Z,94977.00
2023-04-18T03:27:17.135Z,94977.00
2023-04-18T03:28:17.178Z,94975.00
2023-04-18T03:29:17.209Z,94975.00
2023-04-18T03:30:17.207Z,94975.00
2023-04-18T03:31:17.371Z,94977.00
2023-04-18T03:32:17.437Z,94981.00
2023-04-18T03:33:17.376Z,94979.00
2023-04-18T03:34:17.472Z,94977.00
2023-04-18T03:35:17.469Z,94979.00
2023-04-18T03:36:17.540Z,94979.00
2023-04-18T03:37:17.570Z,94981.00
2023-04-18T03:38:17.648Z,94979.00
2023-04-18T03:39:17.680Z,94981.00
2023-04-18T03:40:17.717Z,94981.00
2023-04-18T03:41:17.748Z,94979.00
2023-04-18T03:42:17.849Z,94979.00
2023-04-18T03:43:17.896Z,94981.00
2023-04-18T03:44:17.931Z,94979.00
2023-04-18T03:45:17.968Z,94981.00
2023-04-18T03:46:18.055Z,94981.00
2023-04-18T03:47:18.085Z,94979.00
2023-04-18T03:48:18.136Z,94977.00
2023-04-18T03:49:18.157Z,94975.00
2023-04-18T03:50:18.240Z,94977.00
2023-04-18T03:51:18.295Z,94977.00
2023-04-18T03:52:18.325Z,94975.00
2023-04-18T03:53:18.369Z,94979.00
2023-04-18T03:54:18.456Z,94977.00
2023-04-18T03:55:18.484Z,94975.00
2023-04-18T03:56:18.505Z,94975.00
2023-04-18T03:57:18.563Z,94979.00
2023-04-18T03:58:18.630Z,94977.00
2023-04-18T03:59:18.672Z,94977.00
2023-04-18T04:00:18.673Z,94979.00
2023-04-18T04:01:18.809Z,94977.00
2023-04-18T04:02:18.990Z,94981.00
2023-04-18T04:03:18.988Z,94977.00
2023-04-18T04:04:19.142Z,94983.00
2023-04-18T04:05:18.996Z,94979.00
2023-04-18T04:06:19.023Z,94981.00
2023-04-18T04:07:19.089Z,94979.00
2023-04-18T04:08:19.161Z,94979.00
2023-04-18T04:09:19.171Z,94981.00
2023-04-18T04:10:19.202Z,94983.00
2023-04-18T04:11:19.276Z,94981.00
2023-04-18T04:12:19.289Z,94983.00
2023-04-18T04:13:19.384Z,94983.00
2023-04-18T04:14:19.437Z,94983.00
2023-04-18T04:15:19.448Z,94983.00
2023-04-18T04:16:19.567Z,94983.00
2023-04-18T04:17:19.543Z,94985.00
2023-04-18T04:18:19.583Z,94985.00
2023-04-18T04:19:19.669Z,94983.00
2023-04-18T04:20:19.732Z,94983.00
2023-04-18T04:21:21.107Z,94981.00
2023-04-18T04:22:19.825Z,94987.00
2023-04-18T04:23:19.862Z,94987.00
2023-04-18T04:24:19.920Z,94989.00
2023-04-18T04:25:19.980Z,94991.00
2023-04-18T04:26:20.025Z,94993.00
2023-04-18T04:27:20.094Z,94993.00
2023-04-18T04:28:20.065Z,94991.00
2023-04-18T04:29:20.154Z,94991.00
2023-04-18T04:30:20.219Z,94991.00
2023-04-18T04:31:20.285Z,94993.00
2023-04-18T04:32:20.434Z,94994.00
2023-04-18T04:33:20.361Z,94991.00
2023-04-18T04:34:20.380Z,94993.00
2023-04-18T04:35:20.468Z,94994.00
2023-04-18T04:36:20.496Z,94996.00
2023-04-18T04:37:20.510Z,94996.00
2023-04-18T04:38:20.591Z,95000.00
2023-04-18T04:39:20.635Z,94998.00
2023-04-18T04:40:20.711Z,95000.00
2023-04-18T04:41:20.746Z,94998.00
2023-04-18T04:42:20.814Z,94998.00
2023-04-18T04:43:20.930Z,94998.00
2023-04-18T04:44:20.931Z,94996.00
2023-04-18T04:45:20.934Z,94998.00
2023-04-18T04:46:21.080Z,94998.00
2023-04-18T04:47:21.085Z,94998.00
2023-04-18T04:48:21.095Z,94998.00
2023-04-18T04:49:21.124Z,95000.00
2023-04-18T04:50:21.182Z,94998.00
2023-04-18T04:51:21.286Z,95000.00
2023-04-18T04:52:21.306Z,95002.00
2023-04-18T04:53:21.334Z,95002.00
2023-04-18T04:54:21.409Z,95002.00
2023-04-18T04:55:21.467Z,95004.00
2023-04-18T04:56:21.511Z,95004.00
2023-04-18T04:57:21.551Z,95002.00
2023-04-18T04:58:21.619Z,95006.00
2023-04-18T04:59:21.632Z,95006.00
2023-04-18T05:00:21.720Z,95002.00
2023-04-18T05:01:21.754Z,95004.00
2023-04-18T05:02:21.812Z,95008.00
2023-04-18T05:03:21.914Z,95008.00
2023-04-18T05:04:21.933Z,95002.00
2023-04-18T05:05:21.961Z,95006.00
2023-04-18T05:06:21.987Z,95008.00
2023-04-18T05:07:22.025Z,95006.00
2023-04-18T05:08:22.071Z,95006.00
2023-04-18T05:09:22.166Z,95008.00
2023-04-18T05:10:22.167Z,95006.00
2023-04-18T05:11:22.244Z,95008.00
2023-04-18T05:12:22.256Z,95010.00
2023-04-18T05:13:22.347Z,95008.00
2023-04-18T05:14:22.332Z,95008.00
2023-04-18T05:15:22.370Z,95010.00
2023-04-18T05:16:22.482Z,95016.00
2023-04-18T05:17:22.516Z,95016.00
2023-04-18T05:18:22.556Z,95014.00
2023-04-18T05:19:22.510Z,95018.00
2023-04-18T05:20:22.636Z,95014.00
2023-04-18T05:21:22.783Z,95016.00
2023-04-18T05:22:22.678Z,95012.00
2023-04-18T05:23:22.736Z,95016.00
2023-04-18T05:24:22.805Z,95014.00
2023-04-18T05:25:22.838Z,95016.00
2023-04-18T05:26:22.842Z,95010.00
2023-04-18T05:27:22.898Z,95012.00
2023-04-18T05:28:22.969Z,95010.00
2023-04-18T05:29:22.967Z,95010.00
2023-04-18T05:30:23.062Z,95010.00
2023-04-18T05:31:23.150Z,95010.00
2023-04-18T05:32:23.175Z,95008.00
2023-04-18T05:33:23.279Z,95010.00
2023-04-18T05:34:23.254Z,95008.00
2023-04-18T05:35:23.264Z,95008.00
2023-04-18T05:36:23.328Z,95008.00
2023-04-18T05:37:23.432Z,95010.00
2023-04-18T05:38:23.457Z,95010.00
2023-04-18T05:39:23.550Z,95014.00
2023-04-18T05:40:23.670Z,95014.00
2023-04-18T05:41:23.611Z,95012.00
2023-04-18T05:42:23.673Z,95012.00
2023-04-18T05:43:23.785Z,95016.00
2023-04-18T05:44:23.977Z,95018.00
2023-04-18T05:45:23.872Z,95016.00
2023-04-18T05:46:23.972Z,95018.00
2023-04-18T05:47:23.981Z,95022.00
2023-04-18T05:48:24.022Z,95024.00
2023-04-18T05:49:24.072Z,95022.00
2023-04-18T05:50:24.166Z,95024.00
2023-04-18T05:51:24.406Z,95026.00
2023-04-18T05:52:24.278Z,95028.00
2023-04-18T05:53:24.264Z,95026.00
2023-04-18T05:54:24.331Z,95028.00
2023-04-18T05:55:24.388Z,95024.00
2023-04-18T05:56:24.564Z,95028.00
2023-04-18T05:57:24.900Z,95030.00
2023-04-18T05:58:24.508Z,95030.00
2023-04-18T05:59:24.866Z,95032.00
2023-04-18T06:00:24.572Z,95030.00
2023-04-18T06:01:24.896Z,95028.00
2023-04-18T06:02:24.843Z,95030.00
2023-04-18T06:03:24.729Z,95030.00
2023-04-18T06:04:24.762Z,95030.00
2023-04-18T06:05:25.039Z,95032.00
2023-04-18T06:06:24.730Z,95030.00
2023-04-18T06:07:24.716Z,95032.00
2023-04-18T06:08:24.768Z,95034.00
2023-04-18T06:09:24.736Z,95034.00
2023-04-18T06:10:24.783Z,95034.00
2023-04-18T06:11:24.843Z,95036.00
2023-04-18T06:12:24.865Z,95038.00
2023-04-18T06:13:24.863Z,95038.00
2023-04-18T06:14:24.912Z,95040.00
2023-04-18T06:15:24.923Z,95040.00
2023-04-18T06:16:25.031Z,95040.00
2023-04-18T06:17:24.966Z,95040.00
2023-04-18T06:18:25.051Z,95043.00
2023-04-18T06:19:25.026Z,95041.00
2023-04-18T06:20:25.006Z,95041.00
2023-04-18T06:21:25.038Z,95043.00
2023-04-18T06:22:25.024Z,95043.00
2023-04-18T06:23:25.033Z,95045.00
2023-04-18T06:24:25.086Z,95047.00
2023-04-18T06:25:25.086Z,95043.00
2023-04-18T06:26:25.096Z,95045.00
2023-04-18T06:27:31.537Z,95047.00
2023-04-18T06:28:26.143Z,95043.00
2023-04-18T06:29:25.076Z,95045.00
2023-04-18T06:30:25.141Z,95047.00
2023-04-18T06:31:25.458Z,95045.00
2023-04-18T06:32:25.164Z,95045.00
2023-04-18T06:33:25.382Z,95045.00
2023-04-18T06:34:25.074Z,95049.00
2023-04-18T06:35:26.737Z,95049.00
2023-04-18T06:36:25.062Z,95051.00
2023-04-18T06:37:25.075Z,95051.00
2023-04-18T06:38:25.075Z,95051.00
2023-04-18T06:39:25.056Z,95051.00
2023-04-18T06:40:25.033Z,95049.00
2023-04-18T06:41:25.944Z,95045.00
2023-04-18T06:42:25.092Z,95047.00
2023-04-18T06:43:25.021Z,95045.00
2023-04-18T06:44:25.119Z,95045.00
2023-04-18T06:45:25.032Z,95045.00
2023-04-18T06:46:25.119Z,95047.00
2023-04-18T06:47:25.067Z,95049.00
2023-04-18T06:48:25.413Z,95049.00
2023-04-18T06:49:26.446Z,95047.00
2023-04-18T06:50:25.069Z,95047.00
2023-04-18T06:51:25.119Z,95045.00
2023-04-18T06:52:25.203Z,95045.00
2023-04-18T06:53:25.252Z,95049.00
2023-04-18T06:54:25.162Z,95049.00
2023-04-18T06:55:25.319Z,95045.00
2023-04-18T06:56:25.274Z,95047.00
2023-04-18T06:57:25.503Z,95049.00
2023-04-18T06:58:25.200Z,95047.00
2023-04-18T06:59:25.180Z,95047.00
2023-04-18T07:00:25.205Z,95045.00
2023-04-18T07:01:25.292Z,95045.00
2023-04-18T07:02:25.427Z,95045.00
2023-04-18T07:03:25.424Z,95045.00
2023-04-18T07:04:25.373Z,95045.00
2023-04-18T07:05:25.233Z,95045.00
2023-04-18T07:06:25.229Z,95047.00
2023-04-18T07:07:25.304Z,95045.00
2023-04-18T07:08:25.244Z,95045.00
2023-04-18T07:09:25.251Z,95045.00
2023-04-18T07:10:25.235Z,95043.00
2023-04-18T07:11:25.299Z,95045.00
2023-04-18T07:12:25.522Z,95043.00
2023-04-18T07:13:25.287Z,95045.00
2023-04-18T07:14:25.278Z,95043.00
2023-04-18T07:15:25.290Z,95047.00
2023-04-18T07:16:25.371Z,95043.00
2023-04-18T07:17:25.383Z,95045.00
2023-04-18T07:18:36.618Z,95043.00
2023-04-18T07:19:26.280Z,95041.00
2023-04-18T07:20:25.312Z,95043.00
2023-04-18T07:21:25.283Z,95043.00
2023-04-18T07:22:25.481Z,95043.00
2023-04-18T07:23:25.289Z,95041.00
2023-04-18T07:24:25.311Z,95041.00
2023-04-18T07:25:25.248Z,95041.00
2023-04-18T07:26:25.261Z,95041.00
2023-04-18T07:27:25.280Z,95041.00
2023-04-18T07:28:25.285Z,95043.00
2023-04-18T07:29:25.245Z,95043.00
2023-04-18T07:30:25.232Z,95043.00
2023-04-18T07:31:25.257Z,95043.00
2023-04-18T07:32:25.354Z,95043.00
2023-04-18T07:33:25.206Z,95047.00
2023-04-18T07:34:25.196Z,95049.00
2023-04-18T07:35:25.264Z,95049.00
2023-04-18T07:36:25.440Z,95049.00
2023-04-18T07:37:25.168Z,95049.00
2023-04-18T07:38:25.181Z,95051.00
2023-04-18T07:39:25.145Z,95049.00
2023-04-18T07:40:25.170Z,95049.00
2023-04-18T07:41:25.408Z,95047.00
2023-04-18T07:42:25.122Z,95053.00
2023-04-18T07:43:25.898Z,95051.00
2023-04-18T07:44:25.121Z,95049.00
2023-04-18T07:45:25.136Z,95053.00
2023-04-18T07:46:25.244Z,95047.00
2023-04-18T07:47:26.117Z,95049.00
2023-04-18T07:48:25.552Z,95049.00
2023-04-18T07:49:25.468Z,95049.00
2023-04-18T07:50:25.129Z,95047.00
2023-04-18T07:51:25.126Z,95049.00
2023-04-18T07:52:25.082Z,95049.00
2023-04-18T07:53:25.090Z,95047.00
2023-04-18T07:54:25.108Z,95047.00
2023-04-18T07:55:25.277Z,95045.00
2023-04-18T07:56:25.108Z,95045.00
2023-04-18T07:57:25.101Z,95047.00
2023-04-18T07:58:25.235Z,95045.00
2023-04-18T07:59:25.075Z,95049.00
2023-04-18T08:00:25.093Z,95047.00
2023-04-18T08:01:25.137Z,95043.00
2023-04-18T08:02:25.614Z,95049.00
2023-04-18T08:03:25.330Z,95049.00
2023-04-18T08:04:26.924Z,95047.00
2023-04-18T08:05:25.206Z,95047.00
2023-04-18T08:06:25.169Z,95043.00
2023-04-18T08:07:25.169Z,95045.00
2023-04-18T08:08:25.148Z,95043.00
2023-04-18T08:09:25.429Z,95041.00
2023-04-18T08:10:25.161Z,95041.00
2023-04-18T08:11:25.161Z,95041.00
2023-04-18T08:12:25.129Z,95043.00
2023-04-18T08:13:25.119Z,95040.00
2023-04-18T08:14:25.121Z,95040.00
2023-04-18T08:15:25.135Z,95040.00
2023-04-18T08:16:25.164Z,95038.00
2023-04-18T08:17:25.158Z,95038.00
2023-04-18T08:18:25.118Z,95036.00
2023-04-18T08:19:25.469Z,95036.00
2023-04-18T08:20:25.236Z,95034.00
2023-04-18T08:21:25.023Z,95034.00
2023-04-18T08:22:25.065Z,95036.00
2023-04-18T08:23:25.042Z,95034.00
2023-04-18T08:24:25.045Z,95034.00
2023-04-18T08:25:25.064Z,95030.00
2023-04-18T08:26:25.002Z,95030.00
2023-04-18T08:27:25.017Z,95030.00
2023-04-18T08:28:25.023Z,95028.00
2023-04-18T08:29:24.988Z,95030.00
2023-04-18T08:30:25.014Z,95028.00
2023-04-18T08:31:26.189Z,95024.00
2023-04-18T08:32:25.089Z,95026.00
2023-04-18T08:33:24.959Z,95024.00
2023-04-18T08:34:24.941Z,95026.00
2023-04-18T08:35:24.970Z,95024.00
2023-04-18T08:36:24.960Z,95022.00
2023-04-18T08:37:24.932Z,95022.00
2023-04-18T08:38:24.911Z,95024.00
2023-04-18T08:39:25.395Z,95024.00
2023-04-18T08:40:24.958Z,95024.00
2023-04-18T08:41:25.046Z,95024.00
2023-04-18T08:42:25.174Z,95024.00
2023-04-18T08:43:25.250Z,95026.00
2023-04-18T08:44:25.113Z,95030.00
2023-04-18T08:45:25.211Z,95028.00
2023-04-18T08:46:25.260Z,95030.00
2023-04-18T08:47:25.210Z,95026.00
2023-04-18T08:48:25.108Z,95030.00
2023-04-18T08:49:25.182Z,95028.00
2023-04-18T08:50:25.271Z,95030.00
2023-04-18T08:51:25.333Z,95032.00
2023-04-18T08:52:25.558Z,95032.00
2023-04-18T08:53:25.557Z,95036.00
2023-04-18T08:54:27.215Z,95032.00
2023-04-18T08:55:25.611Z,95034.00
2023-04-18T08:56:25.606Z,95034.00
2023-04-18T08:57:25.622Z,95038.00
2023-04-18T08:58:25.682Z,95034.00
2023-04-18T08:59:25.760Z,95034.00
2023-04-18T09:00:25.805Z,95034.00
2023-04-18T09:01:26.423Z,95038.00
2023-04-18T09:02:27.259Z,95034.00
2023-04-18T09:03:25.912Z,95032.00
2023-04-18T09:04:25.954Z,95032.00
2023-04-18T09:05:25.973Z,95032.00
2023-04-18T09:06:26.682Z,95036.00
2023-04-18T09:07:26.053Z,95032.00
2023-04-18T09:08:26.136Z,95032.00
2023-04-18T09:09:26.467Z,95036.00
2023-04-18T09:10:26.104Z,95028.00
2023-04-18T09:11:26.198Z,95030.00
2023-04-18T09:12:26.182Z,95032.00
2023-04-18T09:13:26.262Z,95034.00
2023-04-18T09:14:26.460Z,95034.00
2023-04-18T09:15:26.306Z,95032.00
2023-04-18T09:16:26.433Z,95030.00
2023-04-18T09:17:26.453Z,95034.00
2023-04-18T09:18:26.507Z,95030.00
2023-04-18T09:19:26.546Z,95030.00
2023-04-18T09:20:26.608Z,95028.00
2023-04-18T09:21:26.615Z,95026.00
2023-04-18T09:22:26.675Z,95028.00
2023-04-18T09:23:26.721Z,95028.00
2023-04-18T09:24:26.820Z,95026.00
2023-04-18T09:25:26.798Z,95026.00
2023-04-18T09:26:26.794Z,95028.00
2023-04-18T09:27:26.843Z,95022.00
2023-04-18T09:28:26.921Z,95020.00
2023-04-18T09:29:26.921Z,95022.00
2023-04-18T09:30:27.002Z,95024.00
2023-04-18T09:31:27.188Z,95022.00
2023-04-18T09:32:27.449Z,95020.00
2023-04-18T09:33:27.153Z,95020.00
2023-04-18T09:34:27.208Z,95018.00
2023-04-18T09:35:27.203Z,95018.00
2023-04-18T09:36:27.647Z,95016.00
2023-04-18T09:37:27.334Z,95014.00
2023-04-18T09:38:27.400Z,95018.00
2023-04-18T09:39:27.439Z,95018.00
2023-04-18T09:40:27.594Z,95014.00
2023-04-18T09:41:27.498Z,95014.00
2023-04-18T09:42:28.883Z,95014.00
2023-04-18T09:43:27.582Z,95012.00
2023-04-18T09:44:27.708Z,95012.00
2023-04-18T09:45:27.582Z,95012.00
2023-04-18T09:46:27.643Z,95008.00
2023-04-18T09:47:27.718Z,95010.00
2023-04-18T09:48:27.622Z,95006.00
2023-04-18T09:49:27.741Z,95008.00
2023-04-18T09:50:27.719Z,95004.00
2023-04-18T09:51:28.249Z,95006.00
2023-04-18T09:52:27.818Z,95002.00
2023-04-18T09:53:27.704Z,95006.00
2023-04-18T09:54:27.805Z,95004.00
2023-04-18T09:55:27.733Z,95004.00
2023-04-18T09:56:27.990Z,95006.00
2023-04-18T09:57:27.816Z,95004.00
2023-04-18T09:58:27.765Z,95004.00
2023-04-18T09:59:27.860Z,95002.00
2023-04-18T10:00:27.937Z,95002.00
2023-04-18T10:01:27.875Z,94998.00
2023-04-18T10:02:27.914Z,95000.00
2023-04-18T10:03:27.929Z,94996.00
2023-04-18T10:04:28.024Z,94996.00
2023-04-18T10:05:28.006Z,94996.00
2023-04-18T10:06:27.849Z,94996.00
2023-04-18T10:07:27.891Z,94996.00
2023-04-18T10:08:27.887Z,94994.00
2023-04-18T10:09:27.918Z,94994.00
2023-04-18T10:10:27.967Z,94994.00
2023-04-18T10:11:27.989Z,94996.00
2023-04-18T10:12:28.020Z,94996.00
2023-04-18T10:13:28.048Z,94987.00
2023-04-18T10:14:28.577Z,94993.00
2023-04-18T10:15:28.112Z,94987.00
2023-04-18T10:16:28.597Z,94989.00
2023-04-18T10:17:29.567Z,94987.00
2023-04-18T10:18:28.185Z,94983.00
2023-04-18T10:19:28.124Z,94983.00
2023-04-18T10:20:28.070Z,94983.00
2023-04-18T10:21:28.082Z,94983.00
2023-04-18T10:22:28.451Z,94979.00
2023-04-18T10:23:28.261Z,94981.00
2023-04-18T10:24:28.199Z,94977.00
2023-04-18T10:25:28.264Z,94977.00
2023-04-18T10:26:28.321Z,94973.00
2023-04-18T10:27:28.495Z,94975.00
2023-04-18T10:28:28.484Z,94971.00
2023-04-18T10:29:28.553Z,94973.00
2023-04-18T10:30:28.596Z,94967.00
2023-04-18T10:31:28.698Z,94965.00
2023-04-18T10:32:28.990Z,94969.00
2023-04-18T10:33:30.960Z,94965.00
2023-04-18T10:34:28.689Z,94961.00
2023-04-18T10:35:28.633Z,94961.00
2023-04-18T10:36:28.895Z,94961.00
2023-04-18T10:37:28.651Z,94957.00
2023-04-18T10:38:28.655Z,94953.00
2023-04-18T10:39:28.623Z,94955.00
2023-04-18T10:40:28.618Z,94951.00
2023-04-18T10:41:28.647Z,94957.00
2023-04-18T10:42:28.611Z,94955.00
2023-04-18T10:43:28.605Z,94955.00
2023-04-18T10:44:28.542Z,94957.00
2023-04-18T10:45:28.563Z,94955.00
2023-04-18T10:46:32.328Z,94949.00
2023-04-18T10:47:28.647Z,94949.00
2023-04-18T10:48:28.984Z,94951.00
2023-04-18T10:49:31.011Z,94947.00
2023-04-18T10:50:28.545Z,94947.00
2023-04-18T10:51:28.534Z,94949.00
2023-04-18T10:52:28.580Z,94947.00
2023-04-18T10:53:28.969Z,94947.00
2023-04-18T10:54:28.532Z,94946.00
2023-04-18T10:55:28.494Z,94946.00
2023-04-18T10:56:28.605Z,94942.00
2023-04-18T10:57:28.487Z,94946.00
2023-04-18T10:58:28.489Z,94942.00
2023-04-18T10:59:28.497Z,94942.00
2023-04-18T11:00:28.528Z,94940.00
2023-04-18T11:01:31.055Z,94938.00
2023-04-18T11:02:28.616Z,94936.00
2023-04-18T11:03:28.554Z,94936.00
2023-04-18T11:04:28.586Z,94938.00
2023-04-18T11:05:28.451Z,94936.00
2023-04-18T11:06:28.488Z,94936.00
2023-04-18T11:07:29.965Z,94934.00
2023-04-18T11:08:28.471Z,94930.00
2023-04-18T11:09:28.404Z,94930.00
2023-04-18T11:10:28.428Z,94928.00
2023-04-18T11:11:28.536Z,94920.00
2023-04-18T11:12:28.467Z,94924.00
2023-04-18T11:13:28.397Z,94922.00
2023-04-18T11:14:28.395Z,94926.00
2023-04-18T11:16:28.405Z,94920.00
2023-04-18T11:17:28.383Z,94918.00
2023-04-18T11:18:28.386Z,94920.00
2023-04-18T11:19:28.627Z,94922.00
2023-04-18T11:20:28.368Z,94916.00
2023-04-18T11:21:30.410Z,94918.00
2023-04-18T11:22:28.469Z,94916.00
2023-04-18T11:23:28.454Z,94914.00
2023-04-18T11:24:28.623Z,94914.00
2023-04-18T11:25:29.410Z,94914.00
2023-04-18T11:26:28.646Z,94916.00
2023-04-18T11:27:28.693Z,94914.00
2023-04-18T11:28:28.670Z,94916.00
2023-04-18T11:29:28.755Z,94918.00
2023-04-18T11:30:28.788Z,94914.00
2023-04-18T11:31:29.002Z,94916.00
2023-04-18T11:32:28.972Z,94912.00
2023-04-18T11:33:28.956Z,94916.00
2023-04-18T11:34:28.900Z,94914.00
2023-04-18T11:35:28.964Z,94912.00
2023-04-18T11:36:28.976Z,94912.00
2023-04-18T11:37:29.006Z,94916.00
2023-04-18T11:38:29.087Z,94914.00
2023-04-18T11:39:29.108Z,94914.00
2023-04-18T11:40:29.245Z,94910.00
2023-04-18T11:41:29.246Z,94912.00
2023-04-18T11:42:29.213Z,94914.00
2023-04-18T11:43:29.235Z,94914.00
2023-04-18T11:44:29.264Z,94912.00
2023-04-18T11:45:29.257Z,94910.00